sensor_id;sensor_type;location;lat;lon;timestamp;P1;durP1;ratioP1;P2;durP2;ratioP2
13366;SDS011;6752;52.612;13.630;2022-11-15T00:01:56;97.93;;;59.80;;
13366;SDS011;6752;52.612;13.630;2022-11-15T00:06:58;107.65;;;62.75;;
13366;SDS011;6752;52.612;13.630;2022-11-15T00:12:01;109.97;;;65.15;;
13366;SDS011;6752;52.612;13.630;2022-11-15T00:17:03;104.10;;;59.67;;
13366;SDS011;6752;52.612;13.630;2022-11-15T00:22:05;114.15;;;64.68;;
13366;SDS011;6752;52.612;13.630;2022-11-15T00:27:08;98.95;;;60.30;;
13366;SDS011;6752;52.612;13.630;2022-11-15T00:32:10;93.37;;;60.20;;
13366;SDS011;6752;52.612;13.630;2022-11-15T00:37:16;114.15;;;66.85;;
13366;SDS011;6752;52.612;13.630;2022-11-15T00:42:15;111.55;;;65.28;;
13366;SDS011;6752;52.612;13.630;2022-11-15T00:47:17;123.47;;;67.28;;
13366;SDS011;6752;52.612;13.630;2022-11-15T00:52:20;114.20;;;67.20;;
13366;SDS011;6752;52.612;13.630;2022-11-15T00:57:22;92.47;;;58.92;;
13366;SDS011;6752;52.612;13.630;2022-11-15T01:02:25;100.10;;;63.15;;
13366;SDS011;6752;52.612;13.630;2022-11-15T01:07:27;101.20;;;61.40;;
13366;SDS011;6752;52.612;13.630;2022-11-15T01:17:31;106.35;;;62.50;;
13366;SDS011;6752;52.612;13.630;2022-11-15T01:22:34;107.57;;;62.90;;
13366;SDS011;6752;52.612;13.630;2022-11-15T01:27:36;96.05;;;61.37;;
13366;SDS011;6752;52.612;13.630;2022-11-15T01:32:38;116.00;;;69.37;;
13366;SDS011;6752;52.612;13.630;2022-11-15T01:37:41;104.82;;;63.67;;
13366;SDS011;6752;52.612;13.630;2022-11-15T01:42:43;95.12;;;61.45;;
13366;SDS011;6752;52.612;13.630;2022-11-15T01:47:47;94.62;;;56.42;;
13366;SDS011;6752;52.612;13.630;2022-11-15T01:52:48;115.37;;;64.93;;
13366;SDS011;6752;52.612;13.630;2022-11-15T01:57:52;103.47;;;60.55;;
13366;SDS011;6752;52.612;13.630;2022-11-15T02:02:53;97.45;;;62.97;;
13366;SDS011;6752;52.612;13.630;2022-11-15T02:07:55;100.55;;;62.50;;
13366;SDS011;6752;52.612;13.630;2022-11-15T02:12:58;98.00;;;58.85;;
13366;SDS011;6752;52.612;13.630;2022-11-15T02:38:58;95.65;;;58.97;;
13366;SDS011;6752;52.612;13.630;2022-11-15T02:43:59;101.07;;;63.42;;
13366;SDS011;6752;52.612;13.630;2022-11-15T02:49:02;121.50;;;67.53;;
13366;SDS011;6752;52.612;13.630;2022-11-15T02:54:04;112.05;;;65.57;;
13366;SDS011;6752;52.612;13.630;2022-11-15T03:04:18;101.40;;;62.35;;
13366;SDS011;6752;52.612;13.630;2022-11-15T03:09:28;114.30;;;63.92;;
13366;SDS011;6752;52.612;13.630;2022-11-15T03:14:35;116.32;;;66.05;;
13366;SDS011;6752;52.612;13.630;2022-11-15T03:19:53;94.57;;;59.53;;
13366;SDS011;6752;52.612;13.630;2022-11-15T03:25:00;80.95;;;63.92;;
13366;SDS011;6752;52.612;13.630;2022-11-15T03:30:03;87.90;;;55.30;;
13366;SDS011;6752;52.612;13.630;2022-11-15T03:35:05;77.72;;;53.55;;
13366;SDS011;6752;52.612;13.630;2022-11-15T03:40:06;78.45;;;51.15;;
13366;SDS011;6752;52.612;13.630;2022-11-15T03:45:19;77.07;;;62.65;;
13366;SDS011;6752;52.612;13.630;2022-11-15T03:50:20;77.10;;;51.50;;
13366;SDS011;6752;52.612;13.630;2022-11-15T03:55:24;70.18;;;49.40;;
13366;SDS011;6752;52.612;13.630;2022-11-15T04:00:27;71.95;;;50.00;;
13366;SDS011;6752;52.612;13.630;2022-11-15T04:05:29;71.93;;;49.90;;
13366;SDS011;6752;52.612;13.630;2022-11-15T04:10:31;66.35;;;46.97;;
13366;SDS011;6752;52.612;13.630;2022-11-15T04:15:34;75.60;;;48.90;;
13366;SDS011;6752;52.612;13.630;2022-11-15T04:20:36;74.95;;;49.40;;
13366;SDS011;6752;52.612;13.630;2022-11-15T04:30:58;75.43;;;48.67;;
13366;SDS011;6752;52.612;13.630;2022-11-15T04:36:03;67.20;;;53.43;;
13366;SDS011;6752;52.612;13.630;2022-11-15T04:41:21;69.53;;;54.67;;
13366;SDS011;6752;52.612;13.630;2022-11-15T04:46:24;60.63;;;51.30;;
13366;SDS011;6752;52.612;13.630;2022-11-15T04:51:25;63.63;;;46.53;;
13366;SDS011;6752;52.612;13.630;2022-11-15T04:56:28;64.03;;;45.50;;
13366;SDS011;6752;52.612;13.630;2022-11-15T05:01:30;60.53;;;50.57;;
13366;SDS011;6752;52.612;13.630;2022-11-15T05:06:33;59.53;;;41.78;;
13366;SDS011;6752;52.612;13.630;2022-11-15T05:11:35;59.10;;;41.28;;
13366;SDS011;6752;52.612;13.630;2022-11-15T05:16:37;51.77;;;45.13;;
13366;SDS011;6752;52.612;13.630;2022-11-15T05:21:40;59.58;;;43.08;;
13366;SDS011;6752;52.612;13.630;2022-11-15T05:26:42;59.05;;;42.75;;
13366;SDS011;6752;52.612;13.630;2022-11-15T05:36:46;59.60;;;38.42;;
13366;SDS011;6752;52.612;13.630;2022-11-15T05:41:56;68.85;;;45.15;;
13366;SDS011;6752;52.612;13.630;2022-11-15T05:47:03;96.05;;;58.55;;
13366;SDS011;6752;52.612;13.630;2022-11-15T05:52:08;79.55;;;49.30;;
13366;SDS011;6752;52.612;13.630;2022-11-15T05:57:10;63.55;;;43.45;;
13366;SDS011;6752;52.612;13.630;2022-11-15T06:02:15;85.80;;;50.33;;
13366;SDS011;6752;52.612;13.630;2022-11-15T06:07:18;71.47;;;48.33;;
13366;SDS011;6752;52.612;13.630;2022-11-15T06:12:20;90.32;;;53.67;;
13366;SDS011;6752;52.612;13.630;2022-11-15T06:17:22;84.62;;;53.60;;
13366;SDS011;6752;52.612;13.630;2022-11-15T06:22:25;82.82;;;52.55;;
13366;SDS011;6752;52.612;13.630;2022-11-15T06:27:27;84.60;;;50.92;;
13366;SDS011;6752;52.612;13.630;2022-11-15T06:37:33;74.47;;;48.83;;
13366;SDS011;6752;52.612;13.630;2022-11-15T06:42:34;106.95;;;57.92;;
13366;SDS011;6752;52.612;13.630;2022-11-15T06:47:43;90.87;;;55.88;;
13366;SDS011;6752;52.612;13.630;2022-11-15T06:52:39;81.37;;;53.03;;
13366;SDS011;6752;52.612;13.630;2022-11-15T06:57:51;77.35;;;48.47;;
13366;SDS011;6752;52.612;13.630;2022-11-15T07:02:53;112.12;;;62.40;;
13366;SDS011;6752;52.612;13.630;2022-11-15T07:07:55;81.53;;;52.50;;
13366;SDS011;6752;52.612;13.630;2022-11-15T07:13:00;77.05;;;49.80;;
13366;SDS011;6752;52.612;13.630;2022-11-15T07:18:02;69.87;;;49.42;;
13366;SDS011;6752;52.612;13.630;2022-11-15T07:23:07;84.93;;;51.70;;
13366;SDS011;6752;52.612;13.630;2022-11-15T07:28:11;87.90;;;54.22;;
13366;SDS011;6752;52.612;13.630;2022-11-15T07:33:16;80.57;;;53.90;;
13366;SDS011;6752;52.612;13.630;2022-11-15T07:38:18;81.43;;;53.67;;
13366;SDS011;6752;52.612;13.630;2022-11-15T07:43:24;83.25;;;51.90;;
13366;SDS011;6752;52.612;13.630;2022-11-15T07:48:26;81.77;;;68.87;;
13366;SDS011;6752;52.612;13.630;2022-11-15T07:53:31;60.90;;;50.33;;
13366;SDS011;6752;52.612;13.630;2022-11-15T07:58:37;55.90;;;48.70;;
13366;SDS011;6752;52.612;13.630;2022-11-15T08:03:42;54.00;;;41.92;;
13366;SDS011;6752;52.612;13.630;2022-11-15T08:08:46;58.87;;;42.62;;
13366;SDS011;6752;52.612;13.630;2022-11-15T08:13:50;59.38;;;41.33;;
13366;SDS011;6752;52.612;13.630;2022-11-15T08:18:52;58.63;;;42.15;;
13366;SDS011;6752;52.612;13.630;2022-11-15T08:23:57;73.45;;;46.72;;
13366;SDS011;6752;52.612;13.630;2022-11-15T08:28:59;60.67;;;43.05;;
13366;SDS011;6752;52.612;13.630;2022-11-15T08:34:05;63.35;;;46.92;;
13366;SDS011;6752;52.612;13.630;2022-11-15T08:39:09;55.97;;;48.50;;
13366;SDS011;6752;52.612;13.630;2022-11-15T08:44:09;56.83;;;40.53;;
13366;SDS011;6752;52.612;13.630;2022-11-15T08:49:12;59.75;;;42.08;;
13366;SDS011;6752;52.612;13.630;2022-11-15T08:54:16;55.15;;;41.65;;
13366;SDS011;6752;52.612;13.630;2022-11-15T08:59:19;54.92;;;40.67;;
13366;SDS011;6752;52.612;13.630;2022-11-15T09:04:25;58.67;;;43.33;;
13366;SDS011;6752;52.612;13.630;2022-11-15T09:09:27;59.97;;;42.53;;
13366;SDS011;6752;52.612;13.630;2022-11-15T09:14:33;55.53;;;40.58;;
13366;SDS011;6752;52.612;13.630;2022-11-15T09:19:35;57.17;;;40.67;;
13366;SDS011;6752;52.612;13.630;2022-11-15T09:24:41;55.45;;;41.97;;
13366;SDS011;6752;52.612;13.630;2022-11-15T09:29:44;47.70;;;36.90;;
13366;SDS011;6752;52.612;13.630;2022-11-15T09:34:49;47.67;;;41.47;;
13366;SDS011;6752;52.612;13.630;2022-11-15T09:39:51;46.28;;;36.35;;
13366;SDS011;6752;52.612;13.630;2022-11-15T09:45:15;43.17;;;33.38;;
13366;SDS011;6752;52.612;13.630;2022-11-15T09:50:26;44.65;;;35.35;;
13366;SDS011;6752;52.612;13.630;2022-11-15T09:55:19;47.25;;;34.08;;
13366;SDS011;6752;52.612;13.630;2022-11-15T10:00:33;46.58;;;32.47;;
13366;SDS011;6752;52.612;13.630;2022-11-15T10:05:40;58.42;;;48.05;;
13366;SDS011;6752;52.612;13.630;2022-11-15T10:10:39;37.70;;;27.30;;
13366;SDS011;6752;52.612;13.630;2022-11-15T10:15:43;30.60;;;27.42;;
13366;SDS011;6752;52.612;13.630;2022-11-15T10:20:47;37.20;;;26.90;;
13366;SDS011;6752;52.612;13.630;2022-11-15T10:25:55;32.42;;;25.98;;
13366;SDS011;6752;52.612;13.630;2022-11-15T10:30:57;32.63;;;25.12;;
13366;SDS011;6752;52.612;13.630;2022-11-15T10:36:14;27.62;;;22.77;;
13366;SDS011;6752;52.612;13.630;2022-11-15T10:41:29;28.70;;;23.12;;
13366;SDS011;6752;52.612;13.630;2022-11-15T10:46:24;30.42;;;22.27;;
13366;SDS011;6752;52.612;13.630;2022-11-15T10:51:27;29.12;;;22.00;;
13366;SDS011;6752;52.612;13.630;2022-11-15T10:56:31;29.12;;;22.05;;
13366;SDS011;6752;52.612;13.630;2022-11-15T11:01:34;31.45;;;22.80;;
13366;SDS011;6752;52.612;13.630;2022-11-15T11:06:46;30.00;;;23.42;;
13366;SDS011;6752;52.612;13.630;2022-11-15T11:11:53;26.15;;;22.25;;
13366;SDS011;6752;52.612;13.630;2022-11-15T11:22:39;30.85;;;21.40;;
13366;SDS011;6752;52.612;13.630;2022-11-15T11:27:42;31.05;;;24.60;;
13366;SDS011;6752;52.612;13.630;2022-11-15T11:38:17;27.60;;;20.73;;
13366;SDS011;6752;52.612;13.630;2022-11-15T11:48:41;31.23;;;24.45;;
13366;SDS011;6752;52.612;13.630;2022-11-15T11:58:55;29.23;;;22.98;;
13366;SDS011;6752;52.612;13.630;2022-11-15T12:04:01;30.50;;;23.60;;
13366;SDS011;6752;52.612;13.630;2022-11-15T12:09:19;30.35;;;21.77;;
13366;SDS011;6752;52.612;13.630;2022-11-15T12:14:51;29.35;;;24.75;;
13366;SDS011;6752;52.612;13.630;2022-11-15T12:29:57;32.93;;;23.70;;
13366;SDS011;6752;52.612;13.630;2022-11-15T12:35:24;28.40;;;24.52;;
13366;SDS011;6752;52.612;13.630;2022-11-15T12:40:33;25.67;;;22.50;;
13366;SDS011;6752;52.612;13.630;2022-11-15T12:45:34;27.92;;;21.20;;
13366;SDS011;6752;52.612;13.630;2022-11-15T13:06:46;31.12;;;21.87;;
13366;SDS011;6752;52.612;13.630;2022-11-15T13:11:42;37.67;;;23.70;;
13366;SDS011;6752;52.612;13.630;2022-11-15T13:16:47;34.40;;;25.23;;
13366;SDS011;6752;52.612;13.630;2022-11-15T13:21:52;30.65;;;22.48;;
13366;SDS011;6752;52.612;13.630;2022-11-15T13:27:16;31.17;;;23.17;;
13366;SDS011;6752;52.612;13.630;2022-11-15T13:32:18;31.30;;;22.83;;
13366;SDS011;6752;52.612;13.630;2022-11-15T13:42:23;28.20;;;22.53;;
13366;SDS011;6752;52.612;13.630;2022-11-15T13:47:26;26.42;;;21.45;;
13366;SDS011;6752;52.612;13.630;2022-11-15T13:52:34;27.95;;;21.48;;
13366;SDS011;6752;52.612;13.630;2022-11-15T13:57:43;27.37;;;21.17;;
13366;SDS011;6752;52.612;13.630;2022-11-15T14:02:44;29.53;;;22.17;;
13366;SDS011;6752;52.612;13.630;2022-11-15T14:07:55;29.73;;;22.87;;
13366;SDS011;6752;52.612;13.630;2022-11-15T14:12:58;29.57;;;20.57;;
13366;SDS011;6752;52.612;13.630;2022-11-15T14:18:00;29.40;;;22.62;;
13366;SDS011;6752;52.612;13.630;2022-11-15T14:23:25;27.13;;;20.60;;
13366;SDS011;6752;52.612;13.630;2022-11-15T14:28:31;26.70;;;20.48;;
13366;SDS011;6752;52.612;13.630;2022-11-15T14:33:36;28.12;;;22.42;;
13366;SDS011;6752;52.612;13.630;2022-11-15T14:38:38;29.80;;;21.48;;
13366;SDS011;6752;52.612;13.630;2022-11-15T14:43:43;27.30;;;19.90;;
13366;SDS011;6752;52.612;13.630;2022-11-15T14:48:45;26.17;;;20.02;;
13366;SDS011;6752;52.612;13.630;2022-11-15T14:53:50;27.98;;;22.13;;
13366;SDS011;6752;52.612;13.630;2022-11-15T14:58:53;29.55;;;22.15;;
13366;SDS011;6752;52.612;13.630;2022-11-15T15:03:58;34.08;;;25.85;;
13366;SDS011;6752;52.612;13.630;2022-11-15T15:09:00;33.78;;;24.33;;
13366;SDS011;6752;52.612;13.630;2022-11-15T15:14:03;32.30;;;22.42;;
13366;SDS011;6752;52.612;13.630;2022-11-15T15:19:05;30.80;;;25.15;;
13366;SDS011;6752;52.612;13.630;2022-11-15T15:24:11;30.60;;;24.73;;
13366;SDS011;6752;52.612;13.630;2022-11-15T15:29:19;29.60;;;22.77;;
13366;SDS011;6752;52.612;13.630;2022-11-15T15:34:24;30.95;;;25.33;;
13366;SDS011;6752;52.612;13.630;2022-11-15T15:39:27;28.75;;;24.37;;
13366;SDS011;6752;52.612;13.630;2022-11-15T15:44:29;30.02;;;24.48;;
13366;SDS011;6752;52.612;13.630;2022-11-15T15:49:32;38.83;;;30.37;;
13366;SDS011;6752;52.612;13.630;2022-11-15T15:54:38;31.10;;;24.85;;
13366;SDS011;6752;52.612;13.630;2022-11-15T15:59:37;30.62;;;24.55;;
13366;SDS011;6752;52.612;13.630;2022-11-15T16:04:42;35.22;;;27.23;;
13366;SDS011;6752;52.612;13.630;2022-11-15T16:09:45;31.80;;;25.05;;
13366;SDS011;6752;52.612;13.630;2022-11-15T16:15:02;37.45;;;29.37;;
13366;SDS011;6752;52.612;13.630;2022-11-15T16:20:04;47.72;;;36.28;;
13366;SDS011;6752;52.612;13.630;2022-11-15T16:25:07;45.60;;;33.70;;
13366;SDS011;6752;52.612;13.630;2022-11-15T16:30:11;42.17;;;37.17;;
13366;SDS011;6752;52.612;13.630;2022-11-15T16:35:12;48.67;;;36.60;;
13366;SDS011;6752;52.612;13.630;2022-11-15T16:40:23;45.25;;;35.15;;
13366;SDS011;6752;52.612;13.630;2022-11-15T16:45:22;48.10;;;33.90;;
13366;SDS011;6752;52.612;13.630;2022-11-15T16:50:25;42.70;;;32.92;;
13366;SDS011;6752;52.612;13.630;2022-11-15T16:55:27;43.33;;;31.95;;
13366;SDS011;6752;52.612;13.630;2022-11-15T17:00:29;40.55;;;30.92;;
13366;SDS011;6752;52.612;13.630;2022-11-15T17:05:31;40.40;;;32.35;;
13366;SDS011;6752;52.612;13.630;2022-11-15T17:10:37;48.63;;;35.63;;
13366;SDS011;6752;52.612;13.630;2022-11-15T17:15:36;51.92;;;38.53;;
13366;SDS011;6752;52.612;13.630;2022-11-15T17:20:39;53.65;;;39.42;;
13366;SDS011;6752;52.612;13.630;2022-11-15T17:25:41;57.13;;;41.10;;
13366;SDS011;6752;52.612;13.630;2022-11-15T17:30:43;55.22;;;40.08;;
13366;SDS011;6752;52.612;13.630;2022-11-15T17:35:46;62.62;;;42.95;;
13366;SDS011;6752;52.612;13.630;2022-11-15T17:40:48;65.87;;;45.35;;
13366;SDS011;6752;52.612;13.630;2022-11-15T17:45:51;60.45;;;44.63;;
13366;SDS011;6752;52.612;13.630;2022-11-15T17:50:54;68.28;;;45.17;;
13366;SDS011;6752;52.612;13.630;2022-11-15T17:55:58;66.18;;;45.97;;
13366;SDS011;6752;52.612;13.630;2022-11-15T18:01:21;119.40;;;51.70;;
13366;SDS011;6752;52.612;13.630;2022-11-15T18:06:06;74.50;;;47.22;;
13366;SDS011;6752;52.612;13.630;2022-11-15T18:11:27;79.87;;;53.47;;
13366;SDS011;6752;52.612;13.630;2022-11-15T18:16:36;68.53;;;45.17;;
13366;SDS011;6752;52.612;13.630;2022-11-15T18:21:42;141.07;;;51.20;;
13366;SDS011;6752;52.612;13.630;2022-11-15T18:26:40;100.40;;;50.17;;
13366;SDS011;6752;52.612;13.630;2022-11-15T18:31:43;72.15;;;49.42;;
13366;SDS011;6752;52.612;13.630;2022-11-15T18:36:47;65.40;;;53.37;;
13366;SDS011;6752;52.612;13.630;2022-11-15T18:41:47;66.82;;;49.33;;
13366;SDS011;6752;52.612;13.630;2022-11-15T18:46:50;67.70;;;46.45;;
13366;SDS011;6752;52.612;13.630;2022-11-15T18:51:52;70.83;;;56.83;;
13366;SDS011;6752;52.612;13.630;2022-11-15T18:56:54;67.07;;;52.42;;
13366;SDS011;6752;52.612;13.630;2022-11-15T19:01:57;65.55;;;44.75;;
13366;SDS011;6752;52.612;13.630;2022-11-15T19:06:59;56.77;;;47.57;;
13366;SDS011;6752;52.612;13.630;2022-11-15T19:12:02;60.78;;;42.35;;
13366;SDS011;6752;52.612;13.630;2022-11-15T19:17:04;58.43;;;46.97;;
13366;SDS011;6752;52.612;13.630;2022-11-15T19:22:06;59.50;;;41.85;;
13366;SDS011;6752;52.612;13.630;2022-11-15T19:27:09;64.72;;;42.22;;
13366;SDS011;6752;52.612;13.630;2022-11-15T19:32:11;66.07;;;43.60;;
13366;SDS011;6752;52.612;13.630;2022-11-15T19:37:14;59.40;;;42.80;;
13366;SDS011;6752;52.612;13.630;2022-11-15T19:42:23;65.65;;;43.28;;
13366;SDS011;6752;52.612;13.630;2022-11-15T19:47:26;70.00;;;46.95;;
13366;SDS011;6752;52.612;13.630;2022-11-15T19:52:28;76.70;;;46.63;;
13366;SDS011;6752;52.612;13.630;2022-11-15T19:57:32;83.20;;;48.50;;
13366;SDS011;6752;52.612;13.630;2022-11-15T20:02:34;73.97;;;47.00;;
13366;SDS011;6752;52.612;13.630;2022-11-15T20:13:11;65.28;;;43.05;;
13366;SDS011;6752;52.612;13.630;2022-11-15T20:18:32;74.10;;;44.55;;
13366;SDS011;6752;52.612;13.630;2022-11-15T20:23:34;65.70;;;44.08;;
13366;SDS011;6752;52.612;13.630;2022-11-15T20:28:37;86.18;;;44.08;;
13366;SDS011;6752;52.612;13.630;2022-11-15T20:33:39;67.70;;;42.20;;
13366;SDS011;6752;52.612;13.630;2022-11-15T20:38:43;96.85;;;42.45;;
13366;SDS011;6752;52.612;13.630;2022-11-15T20:43:45;98.30;;;43.28;;
13366;SDS011;6752;52.612;13.630;2022-11-15T20:48:48;75.37;;;41.53;;
13366;SDS011;6752;52.612;13.630;2022-11-15T20:53:50;72.82;;;40.97;;
13366;SDS011;6752;52.612;13.630;2022-11-15T20:58:52;71.28;;;41.67;;
13366;SDS011;6752;52.612;13.630;2022-11-15T21:04:10;133.57;;;45.78;;
13366;SDS011;6752;52.612;13.630;2022-11-15T21:09:13;91.82;;;43.67;;
13366;SDS011;6752;52.612;13.630;2022-11-15T21:14:43;91.40;;;48.53;;
13366;SDS011;6752;52.612;13.630;2022-11-15T21:19:45;59.95;;;40.83;;
13366;SDS011;6752;52.612;13.630;2022-11-15T21:25:05;115.35;;;46.95;;
13366;SDS011;6752;52.612;13.630;2022-11-15T21:30:08;54.13;;;35.33;;
13366;SDS011;6752;52.612;13.630;2022-11-15T21:35:11;68.78;;;39.65;;
13366;SDS011;6752;52.612;13.630;2022-11-15T21:40:13;112.07;;;42.72;;
13366;SDS011;6752;52.612;13.630;2022-11-15T21:45:16;50.63;;;33.03;;
13366;SDS011;6752;52.612;13.630;2022-11-15T21:50:18;63.13;;;35.08;;
13366;SDS011;6752;52.612;13.630;2022-11-15T21:55:20;78.40;;;39.45;;
13366;SDS011;6752;52.612;13.630;2022-11-15T22:00:23;118.80;;;42.60;;
13366;SDS011;6752;52.612;13.630;2022-11-15T22:05:43;83.03;;;39.38;;
13366;SDS011;6752;52.612;13.630;2022-11-15T22:10:46;68.30;;;41.33;;
13366;SDS011;6752;52.612;13.630;2022-11-15T22:20:53;93.68;;;44.60;;
13366;SDS011;6752;52.612;13.630;2022-11-15T22:25:58;71.77;;;41.53;;
13366;SDS011;6752;52.612;13.630;2022-11-15T22:31:06;81.60;;;44.22;;
13366;SDS011;6752;52.612;13.630;2022-11-15T22:36:09;127.78;;;49.28;;
13366;SDS011;6752;52.612;13.630;2022-11-15T22:41:11;106.37;;;46.72;;
13366;SDS011;6752;52.612;13.630;2022-11-15T22:46:14;93.22;;;43.35;;
13366;SDS011;6752;52.612;13.630;2022-11-15T22:51:38;86.68;;;43.05;;
13366;SDS011;6752;52.612;13.630;2022-11-15T22:56:37;113.65;;;45.45;;
13366;SDS011;6752;52.612;13.630;2022-11-15T23:01:42;102.87;;;42.88;;
13366;SDS011;6752;52.612;13.630;2022-11-15T23:06:45;193.77;;;54.33;;
13366;SDS011;6752;52.612;13.630;2022-11-15T23:11:47;127.20;;;53.67;;
13366;SDS011;6752;52.612;13.630;2022-11-15T23:22:16;110.05;;;42.97;;
13366;SDS011;6752;52.612;13.630;2022-11-15T23:27:37;118.70;;;42.95;;
13366;SDS011;6752;52.612;13.630;2022-11-15T23:32:39;81.47;;;39.85;;
13366;SDS011;6752;52.612;13.630;2022-11-15T23:37:59;181.70;;;54.75;;
13366;SDS011;6752;52.612;13.630;2022-11-15T23:43:04;113.30;;;45.67;;
13366;SDS011;6752;52.612;13.630;2022-11-15T23:48:07;139.23;;;51.67;;
13366;SDS011;6752;52.612;13.630;2022-11-15T23:53:13;162.00;;;51.90;;
13366;SDS011;6752;52.612;13.630;2022-11-15T23:58:15;134.05;;;51.72;;
